createdAt,value
2023-04-02T00:01:05.363Z,80.46
2023-04-02T00:03:56.869Z,80.58
2023-04-02T00:06:35.258Z,80.66
2023-04-02T00:09:19.682Z,80.85
2023-04-02T00:11:57.758Z,81.00
2023-04-02T00:14:36.197Z,81.47
2023-04-02T00:17:08.629Z,81.35
2023-04-02T00:19:52.622Z,81.31
2023-04-02T00:22:31.825Z,81.42
2023-04-02T00:25:07.828Z,81.40
2023-04-02T00:27:40.291Z,81.66
2023-04-02T00:30:14.170Z,81.50
2023-04-02T00:32:47.825Z,81.76
2023-04-02T00:35:25.672Z,81.75
2023-04-02T00:37:58.733Z,82.20
2023-04-02T00:40:32.924Z,82.08
2023-04-02T00:43:07.247Z,81.82
2023-04-02T00:45:40.423Z,81.84
2023-04-02T00:48:27.454Z,81.81
2023-04-02T00:51:02.744Z,81.87
2023-04-02T00:53:36.776Z,81.52
2023-04-02T00:56:11.867Z,81.63
2023-04-02T00:58:46.098Z,81.30
2023-04-02T01:01:21.661Z,81.24
2023-04-02T01:04:03.127Z,80.77
2023-04-02T01:06:40.101Z,81.12
2023-04-02T01:09:18.469Z,80.82
2023-04-02T01:12:08.300Z,80.62
2023-04-02T01:14:55.291Z,80.67
2023-04-02T01:17:38.816Z,80.32
2023-04-02T01:20:28.834Z,80.35
2023-04-02T01:23:08.149Z,80.51
2023-04-02T01:25:43.140Z,80.42
2023-04-02T01:28:35.547Z,80.21
2023-04-02T01:31:07.850Z,80.10
2023-04-02T01:33:42.734Z,79.96
2023-04-02T01:36:20.613Z,79.64
2023-04-02T01:39:04.732Z,79.65
2023-04-02T01:41:39.604Z,79.27
2023-04-02T01:44:14.492Z,79.25
2023-04-02T01:46:50.231Z,79.10
2023-04-02T01:49:23.506Z,78.85
2023-04-02T01:51:58.438Z,78.79
2023-04-02T01:54:32.908Z,78.78
2023-04-02T01:57:06.117Z,78.63
2023-04-02T01:59:38.302Z,78.74
2023-04-02T02:02:15.881Z,78.56
2023-04-02T02:04:49.042Z,78.69
2023-04-02T02:07:22.242Z,78.70
2023-04-02T02:09:55.921Z,78.56
2023-04-02T02:12:27.996Z,78.71
2023-04-02T02:14:59.993Z,78.33
2023-04-02T02:17:34.677Z,78.41
2023-04-02T02:20:09.804Z,78.17
2023-04-02T02:22:47.724Z,78.00
2023-04-02T02:25:22.858Z,78.09
2023-04-02T02:28:18.960Z,78.10
2023-04-02T02:30:56.498Z,78.15
2023-04-02T02:33:31.740Z,77.96
2023-04-02T02:36:08.368Z,77.67
2023-04-02T02:38:48.411Z,77.72
2023-04-02T02:41:34.012Z,77.63
2023-04-02T02:44:15.475Z,77.40
2023-04-02T02:46:59.627Z,77.41
2023-04-02T02:49:40.518Z,77.11
2023-04-02T02:52:18.655Z,77.02
2023-04-02T02:54:58.410Z,77.03
2023-04-02T02:57:38.637Z,76.26
2023-04-02T03:00:12.052Z,76.36
2023-04-02T03:02:45.464Z,76.44
2023-04-02T03:05:21.260Z,76.37
2023-04-02T03:07:57.195Z,76.10
2023-04-02T03:10:42.169Z,76.10
2023-04-02T03:13:25.801Z,76.07
2023-04-02T03:16:03.810Z,76.14
2023-04-02T03:18:53.852Z,75.96
2023-04-02T03:21:49.221Z,76.28
2023-04-02T03:24:36.611Z,76.23
2023-04-02T03:27:20.638Z,76.13
2023-04-02T03:30:27.654Z,75.96
2023-04-02T03:33:03.532Z,75.92
2023-04-02T03:35:47.363Z,75.75
2023-04-02T03:38:28.638Z,75.75
2023-04-02T03:41:03.809Z,75.62
2023-04-02T03:43:39.457Z,75.48
2023-04-02T03:46:36.692Z,75.39
2023-04-02T03:49:14.787Z,75.47
2023-04-02T03:51:55.660Z,75.27
2023-04-02T03:54:29.101Z,74.99
2023-04-02T03:57:01.941Z,74.76
2023-04-02T03:59:52.417Z,74.37
2023-04-02T04:02:48.372Z,74.34
2023-04-02T04:05:26.991Z,74.29
2023-04-02T04:08:02.454Z,74.06
2023-04-02T04:10:36.265Z,73.95
2023-04-02T04:13:20.709Z,73.90
2023-04-02T04:15:58.157Z,73.36
2023-04-02T04:19:01.822Z,73.07
2023-04-02T04:21:38.286Z,72.83
2023-04-02T04:24:23.770Z,72.41
2023-04-02T04:27:17.184Z,72.05
2023-04-02T04:30:02.930Z,72.09
2023-04-02T04:32:42.929Z,71.83
2023-04-02T04:35:35.195Z,71.81
2023-04-02T04:38:29.107Z,71.36
2023-04-02T04:41:16.649Z,71.42
2023-04-02T04:44:20.314Z,71.13
2023-04-02T04:47:01.631Z,70.64
2023-04-02T04:49:43.003Z,70.92
2023-04-02T04:52:24.505Z,70.28
2023-04-02T04:54:56.753Z,70.06
2023-04-02T04:57:41.189Z,69.83
2023-04-02T05:00:23.353Z,69.82
2023-04-02T05:03:16.350Z,69.87
2023-04-02T05:05:49.087Z,69.87
2023-04-02T05:08:24.569Z,69.41
2023-04-02T05:11:00.371Z,69.33
2023-04-02T05:13:47.755Z,69.15
2023-04-02T05:16:40.793Z,68.98
2023-04-02T05:19:22.022Z,68.83
2023-04-02T05:22:02.995Z,68.77
2023-04-02T05:24:49.961Z,68.56
2023-04-02T05:27:52.843Z,68.49
2023-04-02T05:30:28.308Z,68.40
2023-04-02T05:33:05.283Z,68.70
2023-04-02T05:35:39.942Z,68.46
2023-04-02T05:38:24.329Z,68.41
2023-04-02T05:41:07.910Z,68.23
2023-04-02T05:43:42.674Z,68.45
2023-04-02T05:46:18.312Z,68.39
2023-04-02T05:48:54.335Z,68.16
2023-04-02T05:51:32.539Z,67.74
2023-04-02T05:54:07.798Z,67.79
2023-04-02T05:56:45.912Z,67.92
2023-04-02T05:59:27.324Z,67.32
2023-04-02T06:02:03.945Z,66.99
2023-04-02T06:04:49.069Z,66.51
2023-04-02T06:07:36.211Z,66.85
2023-04-02T06:10:25.897Z,66.52
2023-04-02T06:13:06.637Z,66.18
2023-04-02T06:15:40.455Z,65.62
2023-04-02T06:18:17.547Z,65.27
2023-04-02T06:20:51.252Z,64.84
2023-04-02T06:23:41.038Z,64.48
2023-04-02T06:26:28.193Z,63.82
2023-04-02T06:29:15.621Z,63.65
2023-04-02T06:31:50.769Z,63.13
2023-04-02T06:34:26.945Z,62.90
2023-04-02T06:37:24.928Z,61.92
2023-04-02T06:40:00.239Z,61.14
2023-04-02T06:42:33.970Z,61.12
2023-04-02T06:45:22.159Z,61.90
2023-04-02T06:47:59.058Z,60.87
2023-04-02T06:50:36.184Z,60.64
2023-04-02T06:53:11.923Z,60.75
2023-04-02T06:55:55.821Z,60.16
2023-04-02T06:58:29.451Z,59.81
2023-04-02T07:01:01.798Z,59.38
2023-04-02T07:03:42.273Z,58.82
2023-04-02T07:06:21.940Z,58.90
2023-04-02T07:08:55.740Z,58.71
2023-04-02T07:11:28.498Z,58.53
2023-04-02T07:14:02.137Z,58.35
2023-04-02T07:16:36.835Z,58.48
2023-04-02T07:19:11.070Z,58.59
2023-04-02T07:21:43.130Z,58.64
2023-04-02T07:24:15.575Z,58.53
2023-04-02T07:26:48.384Z,58.08
2023-04-02T07:29:20.402Z,58.18
2023-04-02T07:31:54.114Z,58.15
2023-04-02T07:34:27.131Z,58.31
2023-04-02T07:36:59.049Z,58.65
2023-04-02T07:39:31.435Z,59.29
2023-04-02T07:42:03.806Z,59.32
2023-04-02T07:44:35.877Z,59.33
2023-04-02T07:47:09.818Z,59.13
2023-04-02T07:49:41.935Z,58.66
2023-04-02T07:52:14.238Z,58.71
2023-04-02T07:54:46.634Z,58.27
2023-04-02T07:57:18.739Z,58.56
2023-04-02T07:59:51.904Z,58.80
2023-04-02T08:02:24.889Z,58.73
2023-04-02T08:04:56.947Z,57.92
2023-04-02T08:07:29.477Z,56.67
2023-04-02T08:10:01.561Z,56.45
2023-04-02T08:12:34.071Z,55.89
2023-04-02T08:15:07.660Z,55.63
2023-04-02T08:17:39.610Z,55.94
2023-04-02T08:20:23.082Z,55.56
2023-04-02T08:22:55.203Z,55.36
2023-04-02T08:25:27.231Z,56.19
2023-04-02T08:28:01.077Z,56.24
2023-04-02T08:30:33.469Z,56.42
2023-04-02T08:33:07.045Z,56.82
2023-04-02T08:35:39.738Z,57.09
2023-04-02T08:38:15.622Z,57.45
2023-04-02T08:40:51.053Z,57.63
2023-04-02T08:43:39.230Z,58.24
2023-04-02T08:46:23.636Z,58.62
2023-04-02T08:48:56.985Z,58.54
2023-04-02T08:51:31.600Z,58.89
2023-04-02T08:54:06.698Z,58.34
2023-04-02T08:56:41.581Z,58.14
2023-04-02T08:59:25.617Z,57.96
2023-04-02T09:02:03.755Z,58.24
2023-04-02T09:04:37.088Z,58.50
2023-04-02T09:07:12.130Z,58.69
2023-04-02T09:09:44.912Z,58.80
2023-04-02T09:12:23.433Z,58.58
2023-04-02T09:15:01.455Z,59.06
2023-04-02T09:17:42.695Z,59.35
2023-04-02T09:20:21.373Z,59.08
2023-04-02T09:22:54.714Z,59.21
2023-04-02T09:25:33.667Z,59.42
2023-04-02T09:28:06.674Z,59.60
2023-04-02T09:30:59.320Z,59.97
2023-04-02T09:33:46.223Z,59.96
2023-04-02T09:36:37.754Z,59.66
2023-04-02T09:39:21.623Z,59.63
2023-04-02T09:42:05.115Z,59.49
2023-04-02T09:44:31.168Z,59.63
2023-04-02T09:47:09.587Z,59.45
2023-04-02T09:49:42.133Z,59.79
2023-04-02T09:52:31.051Z,59.86
2023-04-02T09:55:22.024Z,59.56
2023-04-02T09:57:57.022Z,59.22
2023-04-02T10:00:41.551Z,59.30
2023-04-02T10:03:06.348Z,58.98
2023-04-02T10:05:41.073Z,58.69
2023-04-02T10:08:30.411Z,58.69
2023-04-02T10:11:05.585Z,58.56
2023-04-02T10:13:55.525Z,58.54
2023-04-02T10:16:48.647Z,58.30
2023-04-02T10:19:32.666Z,58.47
2023-04-02T10:22:13.500Z,58.81
2023-04-02T10:24:46.363Z,58.86
2023-04-02T10:27:33.569Z,58.57
2023-04-02T10:30:15.142Z,59.04
2023-04-02T10:33:08.508Z,59.06
2023-04-02T10:36:04.420Z,59.05
2023-04-02T10:38:54.606Z,58.71
2023-04-02T10:41:47.546Z,57.90
2023-04-02T10:44:31.319Z,57.28
2023-04-02T10:47:09.448Z,56.22
2023-04-02T10:50:00.896Z,54.95
2023-04-02T10:52:38.672Z,54.09
2023-04-02T10:55:19.431Z,52.04
2023-04-02T10:57:53.650Z,51.00
2023-04-02T11:00:28.726Z,50.09
2023-04-02T11:03:11.470Z,48.69
2023-04-02T11:05:55.161Z,47.57
2023-04-02T11:08:48.150Z,46.64
2023-04-02T11:11:26.608Z,46.18
2023-04-02T11:14:07.565Z,46.20
2023-04-02T11:16:43.534Z,46.28
2023-04-02T11:19:19.424Z,46.12
2023-04-02T11:22:06.057Z,46.16
2023-04-02T11:24:51.336Z,45.92
2023-04-02T11:27:37.679Z,46.24
2023-04-02T11:30:18.862Z,46.64
2023-04-02T11:32:51.411Z,46.76
2023-04-02T11:35:35.482Z,46.72
2023-04-02T11:38:26.301Z,47.16
2023-04-02T11:41:00.011Z,48.11
2023-04-02T11:43:37.778Z,48.60
2023-04-02T11:46:21.693Z,49.56
2023-04-02T11:48:55.289Z,49.94
2023-04-02T11:51:36.275Z,50.15
2023-04-02T11:54:11.549Z,50.69
2023-04-02T11:56:49.346Z,51.39
2023-04-02T11:59:27.144Z,51.93
2023-04-02T12:02:04.928Z,52.46
2023-04-02T12:05:14.675Z,52.07
2023-04-02T12:07:51.854Z,51.98
2023-04-02T12:10:26.997Z,51.99
2023-04-02T12:12:59.353Z,52.06
2023-04-02T12:15:34.720Z,52.08
2023-04-02T12:18:24.736Z,52.11
2023-04-02T12:20:58.319Z,51.69
2023-04-02T12:23:33.764Z,51.26
2023-04-02T12:26:11.388Z,50.97
2023-04-02T12:28:45.006Z,50.57
2023-04-02T12:31:18.660Z,49.98
2023-04-02T12:33:54.725Z,49.81
2023-04-02T12:36:27.091Z,49.77
2023-04-02T12:38:59.870Z,49.28
2023-04-02T12:41:34.245Z,48.47
2023-04-02T12:44:11.024Z,48.72
2023-04-02T12:46:44.059Z,48.45
2023-04-02T12:49:33.848Z,48.94
2023-04-02T12:52:09.222Z,49.53
2023-04-02T12:54:55.823Z,50.45
2023-04-02T12:57:30.750Z,50.77
2023-04-02T13:00:06.758Z,51.18
2023-04-02T13:02:47.898Z,51.74
2023-04-02T13:05:42.673Z,52.26
2023-04-02T13:08:35.515Z,52.70
2023-04-02T13:11:08.442Z,52.65
2023-04-02T13:13:42.610Z,52.93
2023-04-02T13:16:17.947Z,53.62
2023-04-02T13:18:52.984Z,53.88
2023-04-02T13:21:28.661Z,54.44
2023-04-02T13:24:01.141Z,54.90
2023-04-02T13:26:33.227Z,55.05
2023-04-02T13:29:23.084Z,55.27
2023-04-02T13:31:58.081Z,55.13
2023-04-02T13:34:31.004Z,55.36
2023-04-02T13:37:03.037Z,55.43
2023-04-02T13:39:35.056Z,55.71
2023-04-02T13:42:08.961Z,55.77
2023-04-02T13:44:41.400Z,55.67
2023-04-02T13:47:15.566Z,55.70
2023-04-02T13:49:47.681Z,55.49
2023-04-02T13:52:20.494Z,55.49
2023-04-02T13:55:01.606Z,55.44
2023-04-02T13:57:34.762Z,54.97
2023-04-02T14:00:07.935Z,54.48
2023-04-02T14:02:46.408Z,54.26
2023-04-02T14:05:30.144Z,54.24
2023-04-02T14:08:17.162Z,53.95
2023-04-02T14:11:03.752Z,54.17
2023-04-02T14:13:57.721Z,53.96
2023-04-02T14:16:38.800Z,54.15
2023-04-02T14:19:38.944Z,54.10
2023-04-02T14:22:19.740Z,54.28
2023-04-02T14:25:06.791Z,54.30
2023-04-02T14:27:53.377Z,54.42
2023-04-02T14:30:43.012Z,54.57
2023-04-02T14:33:32.979Z,54.74
2023-04-02T14:36:10.999Z,54.83
2023-04-02T14:38:48.719Z,54.64
2023-04-02T14:41:45.729Z,54.80
2023-04-02T14:44:20.716Z,54.87
2023-04-02T14:46:56.392Z,55.18
2023-04-02T14:49:32.070Z,55.27
2023-04-02T14:52:07.346Z,54.78
2023-04-02T14:54:42.900Z,55.10
2023-04-02T14:57:18.951Z,54.63
2023-04-02T15:00:24.390Z,55.19
2023-04-02T15:03:19.399Z,54.88
2023-04-02T15:06:03.917Z,55.11
2023-04-02T15:08:42.154Z,55.62
2023-04-02T15:11:23.094Z,55.46
2023-04-02T15:14:16.047Z,55.25
2023-04-02T15:16:48.213Z,55.53
2023-04-02T15:19:21.550Z,55.47
2023-04-02T15:22:06.973Z,55.53
2023-04-02T15:24:43.483Z,55.98
2023-04-02T15:27:24.902Z,56.31
2023-04-02T15:30:16.144Z,56.22
2023-04-02T15:32:49.172Z,56.45
2023-04-02T15:35:36.296Z,56.84
2023-04-02T15:38:21.786Z,56.83
2023-04-02T15:41:11.780Z,56.98
2023-04-02T15:43:47.232Z,57.00
2023-04-02T15:46:56.016Z,57.25
2023-04-02T15:49:48.865Z,57.27
2023-04-02T15:52:38.788Z,57.51
2023-04-02T15:55:25.514Z,57.75
2023-04-02T15:58:01.034Z,57.94
2023-04-02T16:00:36.244Z,57.84
2023-04-02T16:03:35.333Z,57.81
2023-04-02T16:06:25.519Z,58.50
2023-04-02T16:09:06.364Z,58.27
2023-04-02T16:11:39.684Z,58.18
2023-04-02T16:14:28.971Z,58.49
2023-04-02T16:17:13.916Z,58.55
2023-04-02T16:19:45.737Z,58.64
2023-04-02T16:22:29.781Z,59.14
2023-04-02T16:25:10.403Z,59.33
2023-04-02T16:27:50.262Z,59.17
2023-04-02T16:30:34.580Z,59.13
2023-04-02T16:33:12.549Z,59.11
2023-04-02T16:35:53.045Z,59.35
2023-04-02T16:38:56.434Z,59.15
2023-04-02T16:41:52.567Z,59.22
2023-04-02T16:44:39.566Z,59.55
2023-04-02T16:47:17.907Z,59.49
2023-04-02T16:50:02.052Z,59.52
2023-04-02T16:52:37.168Z,60.21
2023-04-02T16:55:12.346Z,60.67
2023-04-02T16:58:15.844Z,61.09
2023-04-02T17:00:53.410Z,61.35
2023-04-02T17:03:56.928Z,61.09
2023-04-02T17:06:32.314Z,61.43
2023-04-02T17:09:18.669Z,61.67
2023-04-02T17:12:02.378Z,61.59
2023-04-02T17:14:40.420Z,61.52
2023-04-02T17:17:15.734Z,61.63
2023-04-02T17:19:50.976Z,61.79
2023-04-02T17:22:24.222Z,61.74
2023-04-02T17:25:01.945Z,61.74
2023-04-02T17:27:42.808Z,61.52
2023-04-02T17:30:21.175Z,61.30
2023-04-02T17:32:53.267Z,61.01
2023-04-02T17:35:47.844Z,60.97
2023-04-02T17:38:48.101Z,61.16
2023-04-02T17:41:36.184Z,61.13
2023-04-02T17:44:20.136Z,61.62
2023-04-02T17:47:04.092Z,61.64
2023-04-02T17:49:38.966Z,61.68
2023-04-02T17:52:41.136Z,61.61
2023-04-02T17:55:24.567Z,61.51
2023-04-02T17:58:11.376Z,61.66
2023-04-02T18:00:46.346Z,61.38
2023-04-02T18:03:30.317Z,61.33
2023-04-02T18:06:08.171Z,61.14
2023-04-02T18:08:54.866Z,61.13
2023-04-02T18:11:29.795Z,61.09
2023-04-02T18:14:05.449Z,60.99
2023-04-02T18:16:46.499Z,60.72
2023-04-02T18:19:40.472Z,60.82
2023-04-02T18:22:31.715Z,61.25
2023-04-02T18:25:15.306Z,61.72
2023-04-02T18:28:08.156Z,61.58
2023-04-02T18:30:43.131Z,62.20
2023-04-02T18:33:49.617Z,62.34
2023-04-02T18:36:30.213Z,62.11
2023-04-02T18:39:05.133Z,61.82
2023-04-02T18:41:48.888Z,61.58
2023-04-02T18:44:38.867Z,62.39
2023-04-02T18:47:22.568Z,62.48
2023-04-02T18:50:18.403Z,62.54
2023-04-02T18:52:51.914Z,62.92
2023-04-02T18:55:27.334Z,62.58
2023-04-02T18:58:05.348Z,62.97
2023-04-02T19:00:40.348Z,62.55
2023-04-02T19:03:27.180Z,62.04
2023-04-02T19:06:14.558Z,61.83
2023-04-02T19:09:01.397Z,61.71
2023-04-02T19:11:33.452Z,61.05
2023-04-02T19:14:19.654Z,61.09
2023-04-02T19:17:03.235Z,60.72
2023-04-02T19:20:00.580Z,60.71
2023-04-02T19:22:47.993Z,60.27
2023-04-02T19:25:38.231Z,60.35
2023-04-02T19:28:29.383Z,60.20
2023-04-02T19:31:04.576Z,60.39
2023-04-02T19:33:48.328Z,60.19
2023-04-02T19:36:32.205Z,60.32
2023-04-02T19:39:22.274Z,60.20
2023-04-02T19:41:56.570Z,60.70
2023-04-02T19:44:28.504Z,60.77
2023-04-02T19:47:00.606Z,60.71
2023-04-02T19:49:35.687Z,60.47
2023-04-02T19:52:07.990Z,60.67
2023-04-02T19:54:40.316Z,60.53
2023-04-02T19:57:15.283Z,60.72
2023-04-02T19:59:47.253Z,60.69
2023-04-02T20:02:19.180Z,60.82
2023-04-02T20:04:51.089Z,60.77
2023-04-02T20:07:23.153Z,60.70
2023-04-02T20:09:55.192Z,60.75
2023-04-02T20:12:27.132Z,60.83
2023-04-02T20:14:59.279Z,60.66
2023-04-02T20:17:31.896Z,60.98
2023-04-02T20:20:04.590Z,60.88
2023-04-02T20:22:36.707Z,61.01
2023-04-02T20:25:09.234Z,61.06
2023-04-02T20:27:41.902Z,61.32
2023-04-02T20:30:14.342Z,61.67
2023-04-02T20:32:46.466Z,62.16
2023-04-02T20:35:18.541Z,63.06
2023-04-02T20:37:50.689Z,63.15
2023-04-02T20:40:22.700Z,63.17
2023-04-02T20:42:54.830Z,63.44
2023-04-02T20:45:28.561Z,63.97
2023-04-02T20:48:00.858Z,63.67
2023-04-02T20:50:32.944Z,63.33
2023-04-02T20:53:05.006Z,63.39
2023-04-02T20:55:37.586Z,63.43
2023-04-02T20:58:09.713Z,63.56
2023-04-02T21:00:42.004Z,63.12
2023-04-02T21:03:14.463Z,63.66
2023-04-02T21:05:48.020Z,64.14
2023-04-02T21:08:21.266Z,64.46
2023-04-02T21:10:53.268Z,63.99
2023-04-02T21:13:25.390Z,64.19
2023-04-02T21:15:57.348Z,64.10
2023-04-02T21:18:29.693Z,63.77
2023-04-02T21:21:04.409Z,63.78
2023-04-02T21:23:35.732Z,63.75
2023-04-02T21:26:09.367Z,63.36
2023-04-02T21:28:41.917Z,64.08
2023-04-02T21:31:26.006Z,63.60
2023-04-02T21:34:00.264Z,63.45
2023-04-02T21:36:35.074Z,63.33
2023-04-02T21:39:10.662Z,63.60
2023-04-02T21:41:46.841Z,63.97
2023-04-02T21:44:24.187Z,64.27
2023-04-02T21:46:56.309Z,64.49
2023-04-02T21:49:30.003Z,64.39
2023-04-02T21:52:01.980Z,64.30
2023-04-02T21:54:33.994Z,64.54
2023-04-02T21:57:06.082Z,64.79
2023-04-02T21:59:38.169Z,65.07
2023-04-02T22:02:10.483Z,65.07
2023-04-02T22:04:42.666Z,65.65
2023-04-02T22:07:14.757Z,65.92
2023-04-02T22:09:46.766Z,65.83
2023-04-02T22:12:19.127Z,65.85
2023-04-02T22:14:51.743Z,65.72
2023-04-02T22:17:23.762Z,65.63
2023-04-02T22:19:55.800Z,66.57
2023-04-02T22:22:27.841Z,66.75
2023-04-02T22:25:00.682Z,67.52
2023-04-02T22:27:32.788Z,67.38
2023-04-02T22:30:06.106Z,67.54
2023-04-02T22:32:39.838Z,68.26
2023-04-02T22:35:11.868Z,68.44
2023-04-02T22:37:43.881Z,68.62
2023-04-02T22:40:16.031Z,69.10
2023-04-02T22:42:49.036Z,68.28
2023-04-02T22:45:21.460Z,68.94
2023-04-02T22:47:53.759Z,68.91
2023-04-02T22:50:25.990Z,69.75
2023-04-02T22:52:57.992Z,68.40
2023-04-02T22:55:30.102Z,69.15
2023-04-02T22:58:01.982Z,69.28
2023-04-02T23:00:34.261Z,68.90
2023-04-02T23:03:07.030Z,68.21
2023-04-02T23:05:39.614Z,68.51
2023-04-02T23:08:11.505Z,68.25
2023-04-02T23:10:43.714Z,68.85
2023-04-02T23:13:16.085Z,68.71
2023-04-02T23:15:48.325Z,68.74
2023-04-02T23:18:20.431Z,67.89
2023-04-02T23:20:54.861Z,68.00
2023-04-02T23:23:27.946Z,67.38
2023-04-02T23:26:09.134Z,67.59
2023-04-02T23:28:42.132Z,67.45
2023-04-02T23:31:19.543Z,67.17
2023-04-02T23:33:53.116Z,67.12
2023-04-02T23:36:30.088Z,66.58
2023-04-02T23:39:05.045Z,66.43
2023-04-02T23:41:38.529Z,66.50
2023-04-02T23:44:11.564Z,66.17
2023-04-02T23:46:43.531Z,65.92
2023-04-02T23:49:15.751Z,65.31
2023-04-02T23:51:48.764Z,65.38
2023-04-02T23:54:20.920Z,65.35
2023-04-02T23:56:54.556Z,65.51
2023-04-02T23:59:26.619Z,65.27
